LFBG/CNG METAR and TAF weather

Enter ICAO airport designator
Station Type Date Time Source
LFBG METAR 2021/03/03 02:30 UTC NOAA

LFBG 030230Z AUTO 09003KT CAVOK 09/04 Q1029


Station Type Date Time Source
LFBG Decoded METAR 2021/03/03 02:30 UTC NOAA

Cognac, France (LFBG) 45-40N 000-19W 31M
Mar 02, 2021 - 09:30 PM EST / 2021.03.03 0230 UTC
Wind: from the E (090 degrees) at 3 MPH (3 KT):0
Visibility: greater than 7 mile(s):0
Temperature: 48 F (9 C)
Dew Point: 39 F (4 C)
Relative Humidity: 70%
Pressure (altimeter): 30.39 in. Hg (1029 hPa)
ob: LFBG 030230Z AUTO 09003KT CAVOK 09/04 Q1029
cycle: 2

Station Type Date Time Source
LFBG TAF 2021/03/02 22:22 UTC NOAA

TAF LFBG 022214Z 0222/0321 CNL

Example: see airport list